createdAt,value
2022-09-23T03:23:53.481Z,8.39
2022-09-23T03:24:54.383Z,8.39
2022-09-23T03:25:54.344Z,8.36
2022-09-23T03:26:54.347Z,8.34
2022-09-23T03:27:54.324Z,8.36
2022-09-23T03:28:54.301Z,8.31
2022-09-23T03:29:54.330Z,8.29
2022-09-23T03:30:54.285Z,8.29
2022-09-23T03:31:54.321Z,8.29
2022-09-23T03:32:54.307Z,8.31
2022-09-23T03:33:54.246Z,8.28
2022-09-23T03:34:54.231Z,8.28
2022-09-23T03:35:54.222Z,8.28
2022-09-23T03:36:54.208Z,8.27
2022-09-23T03:37:54.243Z,8.25
2022-09-23T03:38:54.189Z,8.25
2022-09-23T03:39:54.217Z,8.27
2022-09-23T03:40:54.214Z,8.28
2022-09-23T03:41:54.164Z,8.29
2022-09-23T03:42:54.162Z,8.31
2022-09-23T03:43:54.141Z,8.31
2022-09-23T03:44:54.147Z,8.29
2022-09-23T03:45:54.192Z,8.28
2022-09-23T03:46:54.107Z,8.27
2022-09-23T03:47:54.113Z,8.27
2022-09-23T03:48:54.073Z,8.27
2022-09-23T03:49:54.311Z,8.24
2022-09-23T03:50:54.562Z,8.22
2022-09-23T03:51:54.052Z,8.20
2022-09-23T03:52:54.064Z,8.18
2022-09-23T03:53:54.031Z,8.14
2022-09-23T03:54:54.094Z,8.12
2022-09-23T03:55:54.020Z,8.13
2022-09-23T03:56:53.996Z,8.17
2022-09-23T03:57:54.004Z,8.17
2022-09-23T03:58:53.992Z,8.18
2022-09-23T03:59:53.976Z,8.20
2022-09-23T04:00:54.014Z,8.18
2022-09-23T04:01:53.991Z,8.17
2022-09-23T04:02:53.938Z,8.14
2022-09-23T04:03:53.930Z,8.13
2022-09-23T04:04:53.925Z,8.09
2022-09-23T04:05:53.914Z,8.09
2022-09-23T04:06:53.906Z,8.06
2022-09-23T04:07:53.904Z,8.06
2022-09-23T04:08:53.864Z,8.06
2022-09-23T04:09:53.844Z,8.06
2022-09-23T04:10:54.991Z,8.04
2022-09-23T04:11:53.840Z,8.04
2022-09-23T04:12:53.832Z,8.02
2022-09-23T04:13:53.807Z,8.00
2022-09-23T04:14:53.793Z,7.96
2022-09-23T04:15:53.798Z,7.96
2022-09-23T04:16:53.779Z,7.96
2022-09-23T04:17:53.808Z,7.95
2022-09-23T04:18:53.773Z,7.95
2022-09-23T04:19:53.752Z,7.94
2022-09-23T04:20:53.743Z,7.91
2022-09-23T04:21:53.726Z,7.88
2022-09-23T04:22:53.738Z,7.88
2022-09-23T04:23:53.737Z,7.86
2022-09-23T04:24:53.706Z,7.88
2022-09-23T04:25:53.747Z,7.88
2022-09-23T04:26:53.721Z,7.88
2022-09-23T04:27:53.648Z,7.85
2022-09-23T04:28:53.669Z,7.84
2022-09-23T04:29:53.640Z,7.82
2022-09-23T04:30:53.660Z,7.82
2022-09-23T04:31:53.681Z,7.81
2022-09-23T04:32:53.657Z,7.82
2022-09-23T04:33:53.598Z,7.79
2022-09-23T04:34:53.608Z,7.77
2022-09-23T04:35:53.579Z,7.79
2022-09-23T04:36:53.555Z,7.79
2022-09-23T04:37:53.567Z,7.79
2022-09-23T04:38:53.533Z,7.77
2022-09-23T04:39:53.534Z,7.76
2022-09-23T04:40:53.581Z,7.74
2022-09-23T04:41:53.501Z,7.70
2022-09-23T04:42:53.515Z,7.66
2022-09-23T04:43:53.512Z,7.63
2022-09-23T04:44:53.489Z,7.62
2022-09-23T04:45:53.458Z,7.62
2022-09-23T04:46:53.533Z,7.62
2022-09-23T04:47:53.433Z,7.63
2022-09-23T04:48:53.432Z,7.63
2022-09-23T04:49:57.772Z,7.66
2022-09-23T04:50:53.418Z,7.63
2022-09-23T04:51:53.475Z,7.58
2022-09-23T04:52:53.891Z,7.57
2022-09-23T04:53:53.384Z,7.60
2022-09-23T04:54:53.360Z,7.63
2022-09-23T04:55:53.414Z,7.62
2022-09-23T04:56:53.398Z,7.66
2022-09-23T04:57:53.359Z,7.66
2022-09-23T04:58:53.332Z,7.66
2022-09-23T04:59:53.344Z,7.67
2022-09-23T05:00:53.357Z,7.66
2022-09-23T05:01:53.338Z,7.69
2022-09-23T05:02:53.296Z,7.67
2022-09-23T05:03:53.261Z,7.69
2022-09-23T05:04:53.248Z,7.67
2022-09-23T05:05:53.246Z,7.66
2022-09-23T05:06:53.234Z,7.66
2022-09-23T05:07:53.270Z,7.66
2022-09-23T05:08:53.213Z,7.66
2022-09-23T05:09:53.233Z,7.63
2022-09-23T05:10:53.218Z,7.66
2022-09-23T05:11:53.194Z,7.66
2022-09-23T05:13:00.886Z,7.62
2022-09-23T05:13:53.165Z,7.58
2022-09-23T05:14:53.150Z,7.57
2022-09-23T05:15:53.170Z,7.57
2022-09-23T05:16:53.133Z,7.58
2022-09-23T05:17:53.279Z,7.58
2022-09-23T05:18:53.097Z,7.55
2022-09-23T05:19:53.099Z,7.54
2022-09-23T05:20:53.117Z,7.54
2022-09-23T05:21:53.078Z,7.51
2022-09-23T05:22:53.047Z,7.50
2022-09-23T05:23:53.053Z,7.48
2022-09-23T05:24:53.038Z,7.45
2022-09-23T05:25:53.043Z,7.42
2022-09-23T05:26:53.008Z,7.44
2022-09-23T05:27:53.036Z,7.41
2022-09-23T05:28:52.991Z,7.45
2022-09-23T05:29:52.970Z,7.45
2022-09-23T05:30:52.977Z,7.48
2022-09-23T05:31:53.275Z,7.48
2022-09-23T05:32:52.987Z,7.48
2022-09-23T05:33:52.940Z,7.50
2022-09-23T05:34:52.937Z,7.50
2022-09-23T05:35:52.912Z,7.50
2022-09-23T05:36:52.906Z,7.50
2022-09-23T05:37:52.941Z,7.50
2022-09-23T05:38:52.881Z,7.48
2022-09-23T05:39:53.433Z,7.47
2022-09-23T05:40:52.921Z,7.45
2022-09-23T05:41:52.847Z,7.45
2022-09-23T05:42:52.839Z,7.45
2022-09-23T05:43:52.831Z,7.47
2022-09-23T05:44:52.804Z,7.48
2022-09-23T05:45:52.826Z,7.51
2022-09-23T05:46:52.897Z,7.54
2022-09-23T05:47:52.772Z,7.57
2022-09-23T05:48:52.812Z,7.58
2022-09-23T05:50:00.193Z,7.58
2022-09-23T05:50:52.747Z,7.58
2022-09-23T05:51:52.729Z,7.62
2022-09-23T05:52:52.730Z,7.60
2022-09-23T05:53:52.700Z,7.58
2022-09-23T05:54:52.706Z,7.60
2022-09-23T05:55:52.742Z,7.62
2022-09-23T05:56:52.701Z,7.62
2022-09-23T05:57:52.677Z,7.63
2022-09-23T05:58:53.496Z,7.63
2022-09-23T05:59:52.641Z,7.63
2022-09-23T06:00:52.643Z,7.63
2022-09-23T06:01:56.283Z,7.67
2022-09-23T06:02:52.667Z,7.69
2022-09-23T06:03:52.609Z,7.69
2022-09-23T06:04:52.641Z,7.70
2022-09-23T06:05:52.617Z,7.73
2022-09-23T06:06:52.596Z,7.77
2022-09-23T06:07:52.563Z,7.81
2022-09-23T06:08:52.599Z,7.79
2022-09-23T06:09:52.542Z,7.79
2022-09-23T06:10:54.558Z,7.81
2022-09-23T06:11:52.520Z,7.81
2022-09-23T06:12:52.511Z,7.84
2022-09-23T06:13:52.548Z,7.86
2022-09-23T06:14:52.692Z,7.88
2022-09-23T06:15:52.511Z,7.88
2022-09-23T06:16:52.589Z,7.91
2022-09-23T06:17:52.518Z,7.92
2022-09-23T06:18:52.443Z,7.96
2022-09-23T06:19:52.441Z,8.00
2022-09-23T06:20:52.410Z,8.04
2022-09-23T06:21:52.402Z,8.09
2022-09-23T06:22:55.219Z,8.14
2022-09-23T06:23:55.629Z,8.17
2022-09-23T06:24:52.382Z,8.21
2022-09-23T06:25:52.392Z,8.21
2022-09-23T06:26:52.335Z,8.24
2022-09-23T06:27:52.329Z,8.28
2022-09-23T06:28:52.343Z,8.32
2022-09-23T06:29:53.004Z,8.34
2022-09-23T06:30:52.297Z,8.37
2022-09-23T06:31:52.357Z,8.40
2022-09-23T06:32:52.274Z,8.42
2022-09-23T06:34:00.116Z,8.47
2022-09-23T06:34:52.478Z,8.49
2022-09-23T06:35:58.826Z,8.54
2022-09-23T06:36:52.244Z,8.57
2022-09-23T06:37:52.229Z,8.58
2022-09-23T06:38:52.221Z,8.63
2022-09-23T06:39:52.214Z,8.67
2022-09-23T06:40:52.236Z,8.70
2022-09-23T06:41:52.216Z,8.75
2022-09-23T06:42:52.510Z,8.80
2022-09-23T06:43:52.155Z,8.85
2022-09-23T06:44:52.140Z,8.86
2022-09-23T06:45:52.137Z,8.91
2022-09-23T06:46:52.194Z,8.94
2022-09-23T06:47:52.172Z,8.98
2022-09-23T06:48:52.105Z,9.03
2022-09-23T06:49:52.078Z,9.06
2022-09-23T06:50:52.081Z,9.10
2022-09-23T06:51:52.057Z,9.13
2022-09-23T06:52:52.048Z,9.16
2022-09-23T06:53:52.079Z,9.19
2022-09-23T06:54:52.048Z,9.23
2022-09-23T06:55:52.033Z,9.31
2022-09-23T06:56:52.969Z,9.32
2022-09-23T06:57:52.011Z,9.37
2022-09-23T06:58:51.994Z,9.41
2022-09-23T06:59:52.029Z,9.42
2022-09-23T07:00:53.018Z,9.48
2022-09-23T07:01:52.040Z,9.49
2022-09-23T07:02:52.014Z,9.52
2022-09-23T07:03:51.945Z,9.55
2022-09-23T07:04:51.934Z,9.59
2022-09-23T07:05:52.140Z,9.62
2022-09-23T07:06:51.908Z,9.68
2022-09-23T07:07:51.913Z,9.70
2022-09-23T07:08:51.875Z,9.75
2022-09-23T07:09:52.453Z,9.78
2022-09-23T07:10:51.902Z,9.80
2022-09-23T07:11:51.865Z,9.83
2022-09-23T07:12:51.835Z,9.88
2022-09-23T07:13:55.441Z,9.91
2022-09-23T07:14:51.808Z,9.96
2022-09-23T07:15:51.878Z,9.99
2022-09-23T07:16:51.858Z,10.06
2022-09-23T07:17:51.775Z,10.09
2022-09-23T07:18:52.451Z,10.13
2022-09-23T07:19:51.798Z,10.18
2022-09-23T07:20:51.741Z,10.26
2022-09-23T07:21:51.746Z,10.32
2022-09-23T07:22:51.722Z,10.36
2022-09-23T07:23:51.721Z,10.43
2022-09-23T07:24:51.729Z,10.49
2022-09-23T07:25:51.711Z,10.58
2022-09-23T07:26:51.707Z,10.63
2022-09-23T07:27:51.679Z,10.70
2022-09-23T07:28:51.661Z,10.76
2022-09-23T07:29:51.659Z,10.84
2022-09-23T07:30:59.092Z,10.93
2022-09-23T07:31:52.204Z,10.99
2022-09-23T07:32:51.638Z,11.06
2022-09-23T07:33:51.604Z,11.16
2022-09-23T07:34:51.597Z,11.24
2022-09-23T07:35:51.603Z,11.33
2022-09-23T07:36:51.587Z,11.42
2022-09-23T07:37:51.566Z,11.51
2022-09-23T07:38:51.561Z,11.62
2022-09-23T07:39:51.557Z,11.67
2022-09-23T07:40:51.574Z,11.77
2022-09-23T07:41:52.477Z,11.84
2022-09-23T07:42:52.456Z,11.94
2022-09-23T07:43:51.502Z,12.01
2022-09-23T07:44:51.486Z,12.12
2022-09-23T07:45:51.463Z,12.19
2022-09-23T07:46:51.530Z,12.26
2022-09-23T07:47:51.441Z,12.34
2022-09-23T07:48:51.433Z,12.40
2022-09-23T07:49:51.428Z,12.48
2022-09-23T07:50:51.428Z,12.59
2022-09-23T07:51:51.415Z,12.67
2022-09-23T07:52:51.419Z,12.73
2022-09-23T07:53:51.375Z,12.77
2022-09-23T07:54:51.866Z,12.87
2022-09-23T07:55:51.382Z,12.89
2022-09-23T07:56:51.344Z,12.99
2022-09-23T07:57:51.613Z,13.06
2022-09-23T07:58:51.334Z,13.14
2022-09-23T07:59:51.323Z,13.22
2022-09-23T08:00:51.301Z,13.27
2022-09-23T08:01:51.422Z,13.32
2022-09-23T08:02:53.156Z,13.43
2022-09-23T08:03:51.269Z,13.53
2022-09-23T08:04:51.997Z,13.66
2022-09-23T08:05:51.259Z,13.80
2022-09-23T08:06:51.976Z,13.93
2022-09-23T08:07:51.228Z,14.06
2022-09-23T08:08:53.342Z,14.17
2022-09-23T08:09:51.207Z,14.27
2022-09-23T08:10:51.197Z,14.38
2022-09-23T08:11:51.382Z,14.53
2022-09-23T08:12:51.176Z,14.72
2022-09-23T08:13:59.268Z,14.80
2022-09-23T08:14:51.142Z,14.90
2022-09-23T08:15:55.309Z,14.90
2022-09-23T08:16:51.138Z,14.98
2022-09-23T08:17:51.118Z,15.07
2022-09-23T08:18:51.196Z,15.12
2022-09-23T08:19:51.967Z,15.23
2022-09-23T08:20:51.089Z,15.31
2022-09-23T08:21:51.065Z,15.28
2022-09-23T08:22:51.085Z,15.31
2022-09-23T08:23:51.048Z,15.31
2022-09-23T08:24:52.709Z,15.41
2022-09-23T08:25:51.029Z,15.58
2022-09-23T08:26:51.986Z,15.86
2022-09-23T08:27:51.004Z,16.30
2022-09-23T08:28:50.994Z,16.75
2022-09-23T08:29:50.993Z,17.15
2022-09-23T08:30:51.019Z,17.45
2022-09-23T08:31:50.964Z,17.89
2022-09-23T08:32:50.948Z,18.16
2022-09-23T08:33:51.536Z,18.29
2022-09-23T08:34:52.239Z,18.60
2022-09-23T08:35:50.919Z,18.84
2022-09-23T08:36:50.926Z,19.31
2022-09-23T08:37:51.756Z,19.65
2022-09-23T08:38:50.889Z,20.01
2022-09-23T08:39:50.900Z,20.34
2022-09-23T08:40:50.850Z,20.51
2022-09-23T08:41:53.821Z,20.73
2022-09-23T08:42:50.857Z,20.90
2022-09-23T08:43:51.099Z,21.34
2022-09-23T08:44:50.828Z,21.63
2022-09-23T08:45:50.885Z,21.98
2022-09-23T08:46:53.345Z,22.27
2022-09-23T08:47:50.778Z,22.24
2022-09-23T08:48:50.766Z,22.17
2022-09-23T08:49:50.777Z,22.20
2022-09-23T08:50:51.950Z,22.36
2022-09-23T08:51:50.739Z,22.31
2022-09-23T08:52:50.781Z,22.44
2022-09-23T08:53:50.707Z,22.42
2022-09-23T08:54:55.169Z,22.31
2022-09-23T08:55:50.688Z,22.19
2022-09-23T08:56:50.675Z,21.93
2022-09-23T08:58:14.094Z,21.49
2022-09-23T08:58:50.657Z,21.13
2022-09-23T08:59:51.150Z,20.81
2022-09-23T09:00:50.631Z,20.48
2022-09-23T09:01:50.723Z,20.22
2022-09-23T09:02:50.687Z,20.05
2022-09-23T09:03:50.961Z,19.79
2022-09-23T09:04:50.647Z,19.52
2022-09-23T09:05:54.244Z,19.43
2022-09-23T09:06:54.108Z,19.38
2022-09-23T09:07:50.562Z,19.39
2022-09-23T09:08:50.570Z,19.32
2022-09-23T09:09:50.527Z,19.23
2022-09-23T09:10:50.565Z,19.05
2022-09-23T09:11:50.519Z,18.87
2022-09-23T09:12:50.589Z,18.89
2022-09-23T09:13:50.483Z,18.82
2022-09-23T09:14:50.693Z,18.78
2022-09-23T09:15:51.452Z,18.76
2022-09-23T09:17:00.426Z,18.75
2022-09-23T09:17:50.477Z,18.75
2022-09-23T09:18:50.431Z,18.83
2022-09-23T09:19:50.435Z,18.96
2022-09-23T09:20:50.430Z,18.94
2022-09-23T09:21:50.416Z,18.97
2022-09-23T09:22:50.394Z,19.05
2022-09-23T09:23:51.311Z,19.21
2022-09-23T09:24:50.402Z,19.38
2022-09-23T09:25:50.495Z,19.35
2022-09-23T09:26:50.354Z,19.40
2022-09-23T09:27:50.346Z,19.50
2022-09-23T09:28:50.331Z,19.46
2022-09-23T09:29:50.357Z,19.40
2022-09-23T09:30:50.345Z,19.42
2022-09-23T09:31:50.292Z,19.40
2022-09-23T09:32:50.270Z,19.46
2022-09-23T09:33:50.280Z,19.38
2022-09-23T09:34:50.278Z,19.40
2022-09-23T09:35:50.300Z,19.35
2022-09-23T09:36:50.247Z,19.38
2022-09-23T09:37:50.210Z,19.35
2022-09-23T09:38:50.243Z,19.31
2022-09-23T09:39:50.187Z,19.45
2022-09-23T09:40:51.019Z,19.60
2022-09-23T09:41:50.176Z,19.83
2022-09-23T09:42:50.180Z,19.98
2022-09-23T09:43:50.156Z,20.25
2022-09-23T09:44:50.143Z,20.56
2022-09-23T09:45:56.647Z,20.82
2022-09-23T09:46:50.173Z,21.06
2022-09-23T09:47:50.123Z,21.22
2022-09-23T09:48:50.294Z,21.36
2022-09-23T09:49:50.084Z,21.46
2022-09-23T09:50:50.094Z,21.40
2022-09-23T09:51:51.022Z,21.33
2022-09-23T09:52:50.003Z,21.48
2022-09-23T09:53:49.983Z,21.64
2022-09-23T09:54:49.988Z,21.63
2022-09-23T09:55:50.198Z,21.51
2022-09-23T09:56:50.175Z,21.79
2022-09-23T09:57:49.937Z,22.01
2022-09-23T09:58:49.952Z,22.39
2022-09-23T09:59:50.471Z,23.01
2022-09-23T10:00:50.689Z,23.75
2022-09-23T10:01:50.188Z,24.34
2022-09-23T10:02:51.051Z,24.89
2022-09-23T10:03:49.900Z,25.38
2022-09-23T10:04:49.962Z,25.64
2022-09-23T10:05:49.900Z,25.42
2022-09-23T10:06:50.137Z,24.77
2022-09-23T10:07:50.073Z,24.41
2022-09-23T10:08:50.456Z,23.94
2022-09-23T10:09:49.847Z,23.57
2022-09-23T10:10:49.788Z,23.09
2022-09-23T10:11:50.013Z,22.84
2022-09-23T10:12:49.784Z,22.78
2022-09-23T10:13:49.777Z,22.88
2022-09-23T10:14:49.967Z,22.99
2022-09-23T10:15:49.776Z,22.85
2022-09-23T10:16:50.327Z,22.88
2022-09-23T10:17:49.731Z,22.88
2022-09-23T10:18:49.739Z,22.74
2022-09-23T10:19:49.713Z,22.89
2022-09-23T10:20:49.684Z,23.19
2022-09-23T10:21:49.695Z,23.63
2022-09-23T10:22:49.693Z,23.96
2022-09-23T10:23:50.448Z,24.44
2022-09-23T10:24:49.641Z,24.98
2022-09-23T10:25:49.631Z,25.34
2022-09-23T10:26:49.642Z,25.75
2022-09-23T10:27:49.631Z,26.24
2022-09-23T10:28:50.474Z,26.27
2022-09-23T10:29:49.602Z,25.93
2022-09-23T10:30:49.637Z,25.53
2022-09-23T10:31:49.588Z,25.34
2022-09-23T10:32:49.561Z,25.17
2022-09-23T10:33:49.563Z,25.26
2022-09-23T10:34:49.554Z,25.44
2022-09-23T10:35:49.536Z,25.51
2022-09-23T10:36:49.542Z,25.30
2022-09-23T10:37:49.637Z,25.29
2022-09-23T10:38:49.529Z,25.31
2022-09-23T10:39:49.515Z,25.53
2022-09-23T10:40:49.799Z,25.76
2022-09-23T10:41:49.473Z,25.79
2022-09-23T10:42:49.451Z,25.98
2022-09-23T10:43:49.500Z,25.98
2022-09-23T10:44:49.429Z,26.09
2022-09-23T10:45:49.448Z,26.11
2022-09-23T10:46:50.765Z,25.75
2022-09-23T10:47:49.406Z,25.34
2022-09-23T10:48:49.406Z,25.36
2022-09-23T10:49:49.588Z,25.72
2022-09-23T10:50:49.368Z,26.20
2022-09-23T10:51:49.371Z,26.57
2022-09-23T10:52:49.375Z,27.08
2022-09-23T10:53:49.360Z,27.39
2022-09-23T10:54:49.329Z,27.69
2022-09-23T10:55:49.314Z,27.81
2022-09-23T10:56:49.346Z,27.84
2022-09-23T10:57:49.344Z,27.99
2022-09-23T10:58:49.295Z,28.13
2022-09-23T10:59:49.303Z,28.45
2022-09-23T11:00:49.266Z,28.89
2022-09-23T11:01:49.314Z,29.45
2022-09-23T11:02:49.252Z,29.82
2022-09-23T11:03:49.263Z,30.11
2022-09-23T11:04:49.291Z,30.56
2022-09-23T11:05:50.002Z,30.86
2022-09-23T11:06:49.212Z,31.03
2022-09-23T11:07:49.230Z,30.88
2022-09-23T11:08:49.298Z,30.45
2022-09-23T11:09:49.195Z,29.70
2022-09-23T11:10:49.191Z,28.89
2022-09-23T11:11:49.208Z,28.23
2022-09-23T11:12:49.142Z,28.14
2022-09-23T11:13:54.052Z,28.25
2022-09-23T11:14:49.187Z,28.30
2022-09-23T11:15:49.173Z,28.28
2022-09-23T11:16:49.116Z,28.28
2022-09-23T11:17:49.125Z,28.40
2022-09-23T11:18:49.103Z,28.25
2022-09-23T11:19:49.093Z,27.98
2022-09-23T11:20:49.082Z,27.66
2022-09-23T11:21:49.064Z,27.63
2022-09-23T11:22:49.058Z,27.98
2022-09-23T11:23:49.044Z,28.45
2022-09-23T11:24:49.037Z,28.74
2022-09-23T11:25:49.051Z,29.07
2022-09-23T11:26:49.007Z,29.62
2022-09-23T11:27:49.031Z,30.19
2022-09-23T11:28:48.999Z,30.70
2022-09-23T11:29:55.539Z,31.41
2022-09-23T11:30:48.999Z,32.03
2022-09-23T11:31:49.213Z,32.41
2022-09-23T11:32:49.555Z,32.68
2022-09-23T11:33:48.954Z,32.02
2022-09-23T11:35:02.035Z,31.49
2022-09-23T11:35:49.151Z,31.45
2022-09-23T11:36:49.548Z,31.84
2022-09-23T11:37:58.910Z,32.12
2022-09-23T11:38:49.108Z,32.43
2022-09-23T11:39:49.997Z,32.12
2022-09-23T11:40:48.916Z,31.97
2022-09-23T11:41:51.906Z,32.24
2022-09-23T11:42:48.858Z,32.31
2022-09-23T11:43:49.542Z,32.63
2022-09-23T11:44:50.094Z,32.87
2022-09-23T11:45:49.619Z,32.98
2022-09-23T11:46:49.584Z,32.91
2022-09-23T11:47:48.816Z,32.98
2022-09-23T11:48:49.002Z,32.83
2022-09-23T11:49:48.802Z,32.76
2022-09-23T11:50:48.787Z,32.91
2022-09-23T11:51:51.982Z,33.09
2022-09-23T11:52:48.772Z,33.12
2022-09-23T11:53:48.750Z,33.28
2022-09-23T11:54:48.750Z,33.47
2022-09-23T11:55:57.550Z,33.65
2022-09-23T11:56:49.295Z,33.57
2022-09-23T11:57:49.595Z,33.14
2022-09-23T11:58:52.827Z,32.87
2022-09-23T12:00:52.360Z,32.51
2022-09-23T12:01:48.670Z,32.29
2022-09-23T12:02:59.684Z,32.10
2022-09-23T12:03:48.783Z,31.72
2022-09-23T12:04:57.235Z,31.09
2022-09-23T12:05:48.996Z,30.48
2022-09-23T12:06:48.641Z,29.97
2022-09-23T12:07:48.638Z,29.73
2022-09-23T12:08:48.652Z,29.48
2022-09-23T12:09:58.157Z,29.23
2022-09-23T12:10:48.662Z,29.00
2022-09-23T12:11:48.601Z,28.55
2022-09-23T12:12:48.565Z,28.08
2022-09-23T12:13:48.550Z,28.08
2022-09-23T12:14:48.567Z,28.40
2022-09-23T12:15:48.549Z,28.61
2022-09-23T12:16:48.667Z,29.05
2022-09-23T12:17:48.511Z,29.66
2022-09-23T12:18:48.511Z,30.00
2022-09-23T12:19:48.508Z,30.03
2022-09-23T12:20:48.469Z,29.92
2022-09-23T12:21:51.166Z,29.88
2022-09-23T12:22:48.467Z,29.70
2022-09-23T12:23:48.449Z,29.60
2022-09-23T12:24:48.490Z,29.55
2022-09-23T12:25:48.446Z,29.21
2022-09-23T12:26:48.444Z,28.60
2022-09-23T12:27:48.421Z,28.09
2022-09-23T12:28:48.426Z,27.76
2022-09-23T12:29:48.380Z,27.74
2022-09-23T12:30:48.467Z,28.02
2022-09-23T12:31:48.389Z,28.36
2022-09-23T12:32:48.362Z,28.50
2022-09-23T12:33:48.355Z,28.51
2022-09-23T12:34:48.327Z,28.54
2022-09-23T12:35:48.325Z,28.57
2022-09-23T12:36:48.332Z,28.48
2022-09-23T12:37:48.420Z,28.20
2022-09-23T12:38:48.292Z,27.86
2022-09-23T12:40:58.536Z,27.93
2022-09-23T12:41:59.479Z,28.14
2022-09-23T12:42:59.483Z,28.40
2022-09-23T12:43:59.443Z,28.45
2022-09-23T12:44:59.453Z,28.32
2022-09-23T12:45:59.435Z,28.11
2022-09-23T12:46:59.447Z,27.98
2022-09-23T12:47:59.418Z,27.87
2022-09-23T12:48:59.385Z,27.61
2022-09-23T12:49:59.391Z,27.50
2022-09-23T12:50:59.375Z,27.59
2022-09-23T12:51:59.368Z,27.52
2022-09-23T12:52:59.355Z,27.39
2022-09-23T15:38:51.029Z,22.29
2022-09-23T15:39:51.967Z,22.21
2022-09-23T15:40:52.029Z,22.12
2022-09-23T15:41:51.922Z,22.05
2022-09-23T15:42:51.936Z,21.96
2022-09-23T15:43:51.914Z,21.91
2022-09-23T15:44:51.889Z,21.86
2022-09-23T15:45:51.948Z,21.86
2022-09-23T15:46:52.164Z,21.81
2022-09-23T15:47:51.867Z,21.75
2022-09-23T15:48:56.388Z,21.70
2022-09-23T15:49:51.853Z,21.66
2022-09-23T15:50:51.822Z,21.58
2022-09-23T15:51:51.825Z,21.49
2022-09-23T15:52:51.798Z,21.48
2022-09-23T15:53:51.805Z,21.42
2022-09-23T15:54:51.789Z,21.37
2022-09-23T15:55:51.784Z,21.33
2022-09-23T15:56:51.762Z,21.30
2022-09-23T15:57:51.740Z,21.27
2022-09-23T15:58:51.752Z,21.24
2022-09-23T15:59:58.296Z,21.19
2022-09-23T16:00:55.999Z,21.12
2022-09-23T16:01:51.762Z,21.09
2022-09-23T16:02:51.709Z,21.08
2022-09-23T16:03:51.692Z,21.06
2022-09-23T16:04:51.676Z,21.03
2022-09-23T16:05:51.656Z,21.00
2022-09-23T16:06:51.644Z,20.97
2022-09-23T16:07:51.665Z,20.90
2022-09-23T16:08:51.690Z,20.85
2022-09-23T16:09:51.617Z,20.83
2022-09-23T16:10:51.719Z,20.79
2022-09-23T16:11:51.603Z,20.75
2022-09-23T16:12:51.702Z,20.75
2022-09-23T16:13:51.724Z,20.71
2022-09-23T16:14:51.556Z,20.68
2022-09-23T16:15:51.563Z,20.66
2022-09-23T16:16:51.608Z,20.64
2022-09-23T16:17:51.531Z,20.60
2022-09-23T16:18:51.561Z,20.58
2022-09-23T16:19:51.497Z,20.54
2022-09-23T16:20:51.508Z,20.51
2022-09-23T16:21:51.506Z,20.44
2022-09-23T16:22:51.486Z,20.44
2022-09-23T16:23:51.468Z,20.41
2022-09-23T16:24:51.474Z,20.37
2022-09-23T16:25:51.446Z,20.30
2022-09-23T16:26:51.458Z,20.19
2022-09-23T16:27:51.417Z,20.08
2022-09-23T16:28:51.425Z,20.01
2022-09-23T16:29:51.404Z,19.95
2022-09-23T16:30:51.385Z,19.90
2022-09-23T16:31:51.452Z,19.89
2022-09-23T16:32:51.360Z,19.89
2022-09-23T16:33:51.386Z,19.89
2022-09-23T16:34:51.364Z,19.87
2022-09-23T16:35:51.335Z,19.87
2022-09-23T16:36:51.327Z,19.87
2022-09-23T16:37:51.312Z,19.90
2022-09-23T16:38:51.321Z,19.86
2022-09-23T16:39:51.353Z,19.79
2022-09-23T16:40:51.340Z,19.72
2022-09-23T16:41:51.273Z,19.64
2022-09-23T16:42:51.246Z,19.52
2022-09-23T16:43:51.249Z,19.39
2022-09-23T16:44:51.245Z,19.31
2022-09-23T16:45:51.270Z,19.24
2022-09-23T16:46:51.216Z,19.17
2022-09-23T16:47:51.197Z,19.13
2022-09-23T16:48:52.804Z,19.09
2022-09-23T16:49:51.185Z,19.06
2022-09-23T16:50:51.166Z,19.02
2022-09-23T16:51:51.163Z,18.99
2022-09-23T16:52:51.147Z,18.97
2022-09-23T16:53:51.131Z,18.96
2022-09-23T16:54:51.129Z,18.94
2022-09-23T16:55:51.130Z,18.94
2022-09-23T16:56:51.098Z,18.93
2022-09-23T16:57:51.087Z,18.89
2022-09-23T16:58:51.089Z,18.79
2022-09-23T16:59:51.075Z,18.71
2022-09-23T17:00:51.120Z,18.64
2022-09-23T17:01:51.113Z,18.57
2022-09-23T17:02:51.049Z,18.49
2022-09-23T17:03:51.039Z,18.44
2022-09-23T17:04:51.006Z,18.41
2022-09-23T17:05:50.998Z,18.38
2022-09-23T17:06:50.996Z,18.39
2022-09-23T17:07:50.983Z,18.42
2022-09-23T17:08:50.976Z,18.46
2022-09-23T17:09:50.951Z,18.42
2022-09-23T17:10:50.987Z,18.39
2022-09-23T17:11:50.941Z,18.36
2022-09-23T17:12:50.926Z,18.34
2022-09-23T17:13:50.906Z,18.31
2022-09-23T17:14:50.922Z,18.32
2022-09-23T17:15:50.996Z,18.35
2022-09-23T17:16:50.948Z,18.34
2022-09-23T17:17:50.870Z,18.31
2022-09-23T17:18:50.865Z,18.25
2022-09-23T17:19:50.888Z,18.17
2022-09-23T17:20:50.847Z,18.10
2022-09-23T17:21:50.840Z,18.02
2022-09-23T17:22:50.823Z,17.98
2022-09-23T17:23:50.810Z,17.96
2022-09-23T17:24:50.800Z,17.94
2022-09-23T17:25:50.784Z,17.91
2022-09-23T17:26:53.238Z,17.86
2022-09-23T17:27:50.749Z,17.80
2022-09-23T17:28:50.743Z,17.76
2022-09-23T17:29:50.752Z,17.71
2022-09-23T17:30:50.727Z,17.65
2022-09-23T17:31:50.800Z,17.60
2022-09-23T17:32:50.700Z,17.57
2022-09-23T17:33:50.693Z,17.51
2022-09-23T17:34:50.690Z,17.46
2022-09-23T17:35:50.668Z,17.43
2022-09-23T17:36:50.664Z,17.36
2022-09-23T17:37:50.653Z,17.28
2022-09-23T17:38:50.632Z,17.24
2022-09-23T17:39:50.636Z,17.22
2022-09-23T17:40:50.699Z,17.20
2022-09-23T17:41:50.641Z,17.17
2022-09-23T17:42:50.587Z,17.22
2022-09-23T17:43:50.592Z,17.25
2022-09-23T17:44:50.583Z,17.27
2022-09-23T17:45:50.598Z,17.27
2022-09-23T17:46:50.568Z,17.27
2022-09-23T17:47:50.560Z,17.25
2022-09-23T17:48:50.519Z,17.22
2022-09-23T17:49:50.514Z,17.20
2022-09-23T17:50:50.531Z,17.18
2022-09-23T17:51:50.494Z,17.20
2022-09-23T17:52:50.484Z,17.18
2022-09-23T17:53:50.475Z,17.18
2022-09-23T17:54:50.470Z,17.20
2022-09-23T17:55:50.467Z,17.17
2022-09-23T17:56:50.441Z,17.20
2022-09-23T17:57:50.453Z,17.21
2022-09-23T17:58:50.410Z,17.21
2022-09-23T17:59:50.421Z,17.21
2022-09-23T18:00:50.596Z,17.18
2022-09-23T18:01:50.409Z,17.15
2022-09-23T18:02:50.396Z,17.10
2022-09-23T18:03:50.353Z,17.06
2022-09-23T18:04:50.358Z,17.00
2022-09-23T18:05:50.381Z,17.02
2022-09-23T18:06:50.332Z,17.00
2022-09-23T18:07:50.345Z,16.98
2022-09-23T18:08:50.330Z,16.96
2022-09-23T18:09:50.301Z,16.95
2022-09-23T18:10:50.296Z,16.96
2022-09-23T18:11:50.284Z,16.98
2022-09-23T18:12:50.330Z,16.96
2022-09-23T18:13:50.268Z,16.92
2022-09-23T18:14:50.245Z,16.91
2022-09-23T18:15:50.347Z,16.90
2022-09-23T18:16:50.229Z,16.85
2022-09-23T18:17:50.204Z,16.78
2022-09-23T18:18:50.205Z,16.70
2022-09-23T18:19:50.190Z,16.62
2022-09-23T18:20:50.178Z,16.57
2022-09-23T18:21:50.155Z,16.51
2022-09-23T18:22:50.158Z,16.50
2022-09-23T18:23:50.161Z,16.47
2022-09-23T18:24:50.128Z,16.41
2022-09-23T18:25:50.120Z,16.40
2022-09-23T18:26:50.119Z,16.36
2022-09-23T18:27:50.087Z,16.34
2022-09-23T18:28:50.096Z,16.32
2022-09-23T18:29:50.092Z,16.33
2022-09-23T18:30:50.057Z,16.33
2022-09-23T18:31:50.124Z,16.34
2022-09-23T18:32:50.038Z,16.33
2022-09-23T18:33:50.039Z,16.30
2022-09-23T18:34:50.032Z,16.27
2022-09-23T18:35:50.015Z,16.23
2022-09-23T18:36:49.989Z,16.18
2022-09-23T18:37:50.010Z,16.18
2022-09-23T18:38:49.969Z,16.18
2022-09-23T18:39:49.975Z,16.25
2022-09-23T18:40:50.041Z,16.26
2022-09-23T18:41:49.965Z,16.25
2022-09-23T18:42:49.936Z,16.23
2022-09-23T18:43:50.029Z,16.22
2022-09-23T18:44:49.917Z,16.23
2022-09-23T18:45:49.939Z,16.22
2022-09-23T18:46:49.876Z,16.13
2022-09-23T18:47:49.880Z,16.04
2022-09-23T18:48:49.870Z,15.92
2022-09-23T18:49:49.872Z,15.86
2022-09-23T18:50:49.844Z,15.84
2022-09-23T18:51:49.821Z,15.80
2022-09-23T18:52:49.837Z,15.77
2022-09-23T18:53:49.810Z,15.76
2022-09-23T18:54:52.998Z,15.76
2022-09-23T18:55:49.964Z,15.77
2022-09-23T18:56:49.778Z,15.78
2022-09-23T18:57:49.755Z,15.80
2022-09-23T18:58:49.791Z,15.80
2022-09-23T18:59:49.760Z,15.80
2022-09-23T19:00:49.814Z,15.76
2022-09-23T19:01:49.887Z,15.76
2022-09-23T19:02:49.732Z,15.77
2022-09-23T19:03:49.690Z,15.76
2022-09-23T19:04:49.680Z,15.76
2022-09-23T19:05:49.726Z,15.76
2022-09-23T19:06:49.665Z,15.76
2022-09-23T19:07:49.673Z,15.73
2022-09-23T19:08:49.635Z,15.71
2022-09-23T19:11:00.299Z,15.73
2022-09-23T19:12:01.306Z,15.67